createdAt,value
2019-05-22T00:00:27.638Z,95.00
2019-05-22T00:02:57.853Z,94.70
2019-05-22T00:05:35.302Z,94.60
2019-05-22T00:08:05.894Z,94.60
2019-05-22T00:10:34.643Z,94.90
2019-05-22T00:13:04.785Z,94.70
2019-05-22T00:15:38.445Z,94.40
2019-05-22T00:18:07.789Z,94.60
2019-05-22T00:20:37.291Z,94.50
2019-05-22T00:23:12.849Z,94.60
2019-05-22T00:25:43.508Z,94.50
2019-05-22T00:28:12.926Z,94.80
2019-05-22T00:30:44.725Z,94.60
2019-05-22T00:33:14.218Z,94.60
2019-05-22T00:35:44.865Z,94.70
2019-05-22T00:38:15.204Z,94.70
2019-05-22T00:40:45.388Z,94.70
2019-05-22T00:43:17.191Z,94.70
2019-05-22T00:45:48.965Z,94.50
2019-05-22T00:48:20.638Z,94.30
2019-05-22T00:51:04.400Z,94.30
2019-05-22T00:53:44.516Z,94.50
2019-05-22T00:56:16.702Z,94.60
2019-05-22T00:58:54.994Z,94.20
2019-05-22T01:01:26.779Z,94.20
2019-05-22T01:03:57.116Z,94.20
2019-05-22T01:06:27.004Z,94.50
2019-05-22T01:08:56.797Z,94.50
2019-05-22T01:11:28.798Z,94.20
2019-05-22T01:13:57.409Z,94.40
2019-05-22T01:16:27.246Z,93.90
2019-05-22T01:18:57.869Z,94.00
2019-05-22T01:21:26.539Z,93.70
2019-05-22T01:23:57.092Z,93.90
2019-05-22T01:26:26.083Z,94.50
2019-05-22T01:28:55.852Z,94.10
2019-05-22T01:31:33.283Z,94.10
2019-05-22T01:34:05.592Z,94.20
2019-05-22T01:36:35.957Z,94.00
2019-05-22T01:39:23.510Z,93.70
2019-05-22T01:41:54.263Z,94.30
2019-05-22T01:44:23.071Z,94.10
2019-05-22T01:46:53.747Z,94.00
2019-05-22T01:49:22.293Z,94.30
2019-05-22T01:51:51.080Z,94.00
2019-05-22T01:54:19.929Z,94.30
2019-05-22T01:56:48.497Z,94.00
2019-05-22T01:59:17.041Z,93.90
2019-05-22T02:01:47.412Z,93.80
2019-05-22T02:04:17.402Z,94.10
2019-05-22T02:06:47.284Z,94.20
2019-05-22T02:09:30.977Z,94.30
2019-05-22T02:12:07.207Z,94.40
2019-05-22T02:14:38.356Z,94.80
2019-05-22T02:17:10.068Z,95.00
2019-05-22T02:19:39.005Z,94.50
2019-05-22T02:22:09.224Z,94.50
2019-05-22T02:24:39.339Z,94.50
2019-05-22T02:27:08.355Z,94.40
2019-05-22T02:29:37.967Z,94.70
2019-05-22T02:32:06.967Z,94.80
2019-05-22T02:34:35.734Z,94.60
2019-05-22T02:37:05.999Z,94.90
2019-05-22T02:39:36.081Z,95.00
2019-05-22T02:42:15.380Z,94.90
2019-05-22T02:44:45.248Z,95.00
2019-05-22T02:47:20.160Z,94.70
2019-05-22T02:49:48.510Z,95.40
2019-05-22T02:52:17.412Z,95.20
2019-05-22T02:54:47.265Z,95.00
2019-05-22T02:57:16.798Z,95.90
2019-05-22T02:59:45.800Z,95.20
2019-05-22T03:02:17.495Z,96.00
2019-05-22T03:04:53.495Z,96.20
2019-05-22T03:07:23.871Z,96.20
2019-05-22T03:09:52.996Z,96.90
2019-05-22T03:12:22.504Z,96.20
2019-05-22T03:14:51.781Z,96.30
2019-05-22T03:17:30.287Z,96.60
2019-05-22T03:20:03.945Z,96.70
2019-05-22T03:22:37.215Z,96.80
2019-05-22T03:25:09.982Z,96.80
2019-05-22T03:27:44.189Z,96.60
2019-05-22T03:30:32.310Z,96.50
2019-05-22T03:33:06.732Z,97.00
2019-05-22T03:35:44.420Z,97.70
2019-05-22T03:38:13.470Z,96.70
2019-05-22T03:40:42.949Z,97.20
2019-05-22T03:43:24.641Z,97.60
2019-05-22T03:45:56.257Z,97.10
2019-05-22T03:48:27.529Z,97.30
2019-05-22T03:50:59.891Z,97.10
2019-05-22T03:53:28.762Z,97.50
2019-05-22T03:56:17.617Z,97.30
2019-05-22T03:58:47.693Z,97.30
2019-05-22T04:01:57.476Z,97.40
2019-05-22T04:04:35.427Z,97.40
2019-05-22T04:07:06.696Z,97.10
2019-05-22T04:09:35.245Z,97.50
2019-05-22T04:12:04.202Z,97.90
2019-05-22T04:14:34.962Z,96.90
2019-05-22T04:17:05.662Z,97.00
2019-05-22T04:19:48.316Z,97.30
2019-05-22T04:22:06.039Z,97.50
2019-05-22T04:24:35.249Z,97.40
2019-05-22T04:27:05.246Z,97.70
2019-05-22T04:29:34.528Z,97.20
2019-05-22T04:32:05.744Z,97.40
2019-05-22T04:34:34.396Z,97.60
2019-05-22T04:37:03.248Z,97.50
2019-05-22T04:39:32.973Z,98.00
2019-05-22T04:42:02.093Z,97.70
2019-05-22T04:44:30.904Z,97.30
2019-05-22T04:47:00.643Z,97.20
2019-05-22T04:49:29.467Z,97.10
2019-05-22T04:51:58.068Z,97.00
2019-05-22T04:54:26.804Z,96.90
2019-05-22T04:56:55.461Z,97.00
2019-05-22T04:59:24.437Z,97.00
2019-05-22T05:01:53.028Z,97.20
2019-05-22T05:04:22.146Z,97.60
2019-05-22T05:06:51.444Z,97.80
2019-05-22T05:09:19.978Z,97.70
2019-05-22T05:11:48.909Z,97.60
2019-05-22T05:14:17.372Z,97.60
2019-05-22T05:16:46.885Z,97.80
2019-05-22T05:19:15.502Z,97.60
2019-05-22T05:21:44.161Z,97.50
2019-05-22T05:24:12.799Z,97.90
2019-05-22T05:26:41.339Z,97.70
2019-05-22T05:29:18.699Z,98.00
2019-05-22T05:31:47.865Z,98.00
2019-05-22T05:34:25.532Z,98.20
2019-05-22T05:36:55.893Z,98.00
2019-05-22T05:39:40.154Z,98.00
2019-05-22T05:42:08.884Z,97.70
2019-05-22T05:44:37.638Z,98.10
2019-05-22T05:47:09.008Z,97.80
2019-05-22T05:49:37.608Z,98.20
2019-05-22T05:52:07.174Z,98.10
2019-05-22T05:54:36.992Z,97.70
2019-05-22T05:57:31.216Z,97.90
2019-05-22T05:59:59.855Z,98.40
2019-05-22T06:02:28.356Z,98.20
2019-05-22T06:04:58.612Z,98.20
2019-05-22T06:07:28.919Z,98.00
2019-05-22T06:10:17.437Z,98.00
2019-05-22T06:12:47.542Z,98.10
2019-05-22T06:15:16.421Z,98.10
2019-05-22T06:18:07.764Z,98.30
2019-05-22T06:20:38.458Z,98.40
2019-05-22T06:23:26.506Z,98.50
2019-05-22T06:25:58.316Z,98.30
2019-05-22T06:28:29.962Z,98.10
2019-05-22T06:31:05.254Z,98.30
2019-05-22T06:33:36.003Z,98.10
2019-05-22T06:36:17.725Z,98.30
2019-05-22T06:38:49.754Z,99.00
2019-05-22T06:41:20.307Z,98.50
2019-05-22T06:44:11.439Z,98.50
2019-05-22T06:46:44.843Z,99.10
2019-05-22T06:49:34.815Z,98.40
2019-05-22T06:52:08.044Z,98.50
2019-05-22T06:54:37.854Z,98.50
2019-05-22T06:57:10.128Z,98.50
2019-05-22T06:59:38.980Z,98.70
2019-05-22T07:02:09.496Z,98.50
2019-05-22T07:04:38.468Z,98.20
2019-05-22T07:07:11.368Z,98.50
2019-05-22T07:09:38.007Z,98.30
2019-05-22T07:12:06.539Z,98.30
2019-05-22T07:14:39.460Z,98.60
2019-05-22T07:17:09.903Z,98.60
2019-05-22T07:19:39.751Z,98.50
2019-05-22T07:22:09.350Z,98.40
2019-05-22T07:24:38.450Z,98.60
2019-05-22T07:27:26.530Z,98.40
2019-05-22T07:29:56.708Z,98.40
2019-05-22T07:32:26.025Z,98.70
2019-05-22T07:34:55.836Z,98.40
2019-05-22T07:37:24.646Z,98.70
2019-05-22T07:39:53.552Z,98.50
2019-05-22T07:42:22.271Z,98.90
2019-05-22T07:44:50.879Z,98.60
2019-05-22T07:47:22.607Z,98.40
2019-05-22T07:49:51.230Z,98.60
2019-05-22T07:52:20.650Z,98.20
2019-05-22T07:54:53.408Z,98.90
2019-05-22T07:57:24.523Z,98.60
2019-05-22T07:59:53.339Z,98.70
2019-05-22T08:02:25.132Z,98.70
2019-05-22T08:04:53.991Z,98.50
2019-05-22T08:07:24.439Z,98.60
2019-05-22T08:09:53.459Z,98.60
2019-05-22T08:12:23.145Z,98.40
2019-05-22T08:14:52.057Z,98.20
2019-05-22T08:17:21.170Z,97.90
2019-05-22T08:19:49.974Z,98.00
2019-05-22T08:22:19.296Z,97.60
2019-05-22T08:24:48.028Z,97.40
2019-05-22T08:27:19.799Z,97.60
2019-05-22T08:29:48.541Z,97.60
2019-05-22T08:32:18.316Z,97.70
2019-05-22T08:34:47.215Z,97.50
2019-05-22T08:37:21.752Z,97.30
2019-05-22T08:39:51.736Z,97.20
2019-05-22T08:42:21.441Z,97.40
2019-05-22T08:44:50.740Z,97.60
2019-05-22T08:47:19.594Z,97.50
2019-05-22T08:49:48.404Z,97.30
2019-05-22T08:52:23.589Z,97.10
2019-05-22T08:54:51.134Z,97.10
2019-05-22T08:57:20.992Z,97.50
2019-05-22T08:59:50.020Z,97.20
2019-05-22T09:02:19.631Z,97.50
2019-05-22T09:04:48.388Z,97.60
2019-05-22T09:07:17.338Z,97.60
2019-05-22T09:09:45.934Z,97.90
2019-05-22T09:12:16.203Z,97.80
2019-05-22T09:14:45.475Z,97.50
2019-05-22T09:17:15.165Z,97.70
2019-05-22T09:19:43.769Z,97.50
2019-05-22T09:22:12.659Z,97.50
2019-05-22T09:24:41.373Z,97.50
2019-05-22T09:27:11.648Z,97.40
2019-05-22T09:29:40.275Z,97.40
2019-05-22T09:32:08.856Z,97.40
2019-05-22T09:34:38.429Z,97.50
2019-05-22T09:37:07.630Z,97.50
2019-05-22T09:39:36.663Z,97.70
2019-05-22T09:42:05.564Z,97.90
2019-05-22T09:44:34.115Z,98.00
2019-05-22T09:47:02.644Z,98.20
2019-05-22T09:49:31.135Z,98.00
2019-05-22T09:52:00.332Z,97.80
2019-05-22T09:54:29.013Z,97.60
2019-05-22T09:56:57.597Z,97.90
2019-05-22T09:59:26.345Z,97.90
2019-05-22T10:01:55.296Z,97.80
2019-05-22T10:04:24.515Z,97.60
2019-05-22T10:06:53.099Z,97.80
2019-05-22T10:09:41.022Z,97.60
2019-05-22T10:12:09.932Z,97.70
2019-05-22T10:14:38.849Z,97.60
2019-05-22T10:17:08.794Z,97.40
2019-05-22T10:19:37.711Z,97.20
2019-05-22T10:22:07.988Z,97.20
2019-05-22T10:24:36.768Z,96.90
2019-05-22T10:27:06.381Z,96.70
2019-05-22T10:29:35.377Z,96.60
2019-05-22T10:32:04.684Z,96.60
2019-05-22T10:34:33.354Z,96.90
2019-05-22T10:37:02.357Z,96.50
2019-05-22T10:39:31.842Z,96.50
2019-05-22T10:42:00.359Z,96.40
2019-05-22T10:44:28.956Z,96.80
2019-05-22T10:46:57.689Z,96.70
2019-05-22T10:49:26.301Z,96.70
2019-05-22T10:51:55.403Z,96.30
2019-05-22T10:54:24.026Z,96.20
2019-05-22T10:56:52.647Z,96.50
2019-05-22T10:59:21.203Z,96.60
2019-05-22T11:01:50.173Z,96.30
2019-05-22T11:04:19.839Z,96.60
2019-05-22T11:06:48.976Z,96.30
2019-05-22T11:09:17.967Z,96.20
2019-05-22T11:11:46.925Z,96.80
2019-05-22T11:14:15.571Z,96.40
2019-05-22T11:16:44.435Z,96.70
2019-05-22T11:19:13.562Z,96.60
2019-05-22T11:21:42.744Z,96.70
2019-05-22T11:24:11.819Z,97.00
2019-05-22T11:26:40.539Z,96.70
2019-05-22T11:29:09.273Z,96.60
2019-05-22T11:31:38.363Z,96.80
2019-05-22T11:34:07.362Z,97.00
2019-05-22T11:36:36.244Z,97.30
2019-05-22T11:39:09.096Z,97.20
2019-05-22T11:41:37.754Z,97.20
2019-05-22T11:44:07.170Z,98.00
2019-05-22T11:46:35.959Z,98.20
2019-05-22T11:49:04.654Z,97.50
2019-05-22T11:51:33.236Z,97.10
2019-05-22T11:54:09.379Z,97.40
2019-05-22T11:56:32.233Z,96.80
2019-05-22T11:59:00.826Z,97.00
2019-05-22T12:01:29.381Z,96.90
2019-05-22T12:03:59.472Z,96.90
2019-05-22T12:06:29.680Z,96.80
2019-05-22T12:08:58.514Z,96.80
2019-05-22T12:11:27.724Z,96.60
2019-05-22T12:13:56.335Z,96.60
2019-05-22T12:16:27.700Z,96.80
2019-05-22T12:18:58.679Z,96.70
2019-05-22T12:21:26.793Z,96.70
2019-05-22T12:23:55.443Z,96.80
2019-05-22T12:26:43.537Z,96.40
2019-05-22T12:29:12.150Z,96.20
2019-05-22T12:31:41.206Z,96.30
2019-05-22T12:34:09.880Z,96.30
2019-05-22T12:36:39.443Z,96.10
2019-05-22T12:39:09.257Z,96.10
2019-05-22T12:41:38.769Z,96.20
2019-05-22T12:44:07.522Z,96.10
2019-05-22T12:46:36.219Z,96.30
2019-05-22T12:49:09.000Z,96.40
2019-05-22T12:51:37.529Z,96.40
2019-05-22T12:54:06.646Z,96.30
2019-05-22T12:56:35.230Z,96.40
2019-05-22T12:59:04.379Z,96.20
2019-05-22T13:01:33.831Z,96.30
2019-05-22T13:04:04.804Z,96.40
2019-05-22T13:06:34.265Z,96.20
2019-05-22T13:09:03.704Z,96.40
2019-05-22T13:11:32.893Z,96.40
2019-05-22T13:14:01.523Z,96.20
2019-05-22T13:16:31.683Z,96.20
2019-05-22T13:19:00.761Z,96.20
2019-05-22T13:21:34.034Z,96.20
2019-05-22T13:24:05.800Z,95.90
2019-05-22T13:26:36.165Z,96.10
2019-05-22T13:29:06.442Z,96.00
2019-05-22T13:31:35.104Z,96.00
2019-05-22T13:34:04.562Z,96.10
2019-05-22T13:36:34.671Z,96.00
2019-05-22T13:39:06.557Z,95.90
2019-05-22T13:41:35.198Z,96.10
2019-05-22T13:44:05.622Z,96.00
2019-05-22T13:46:35.181Z,96.20
2019-05-22T13:49:04.242Z,96.20
2019-05-22T13:51:32.878Z,96.20
2019-05-22T13:54:02.518Z,96.20
2019-05-22T13:56:31.653Z,96.60
2019-05-22T13:59:02.501Z,97.20
2019-05-22T14:01:31.197Z,97.00
2019-05-22T14:04:00.019Z,97.00
2019-05-22T14:06:29.619Z,97.00
2019-05-22T14:09:01.496Z,97.00
2019-05-22T14:11:30.368Z,96.90
2019-05-22T14:13:59.108Z,96.60
2019-05-22T14:16:27.909Z,96.80
2019-05-22T14:18:56.556Z,96.90
2019-05-22T14:21:25.306Z,96.80
2019-05-22T14:23:53.975Z,96.60
2019-05-22T14:26:22.582Z,96.70
2019-05-22T14:28:51.532Z,96.80
2019-05-22T14:31:20.773Z,96.90
2019-05-22T14:33:49.551Z,96.50
2019-05-22T14:36:18.382Z,96.30
2019-05-22T14:38:47.097Z,96.70
2019-05-22T14:41:16.794Z,96.60
2019-05-22T14:43:45.467Z,96.60
2019-05-22T14:46:18.438Z,96.70
2019-05-22T14:48:47.236Z,96.60
2019-05-22T14:51:16.553Z,96.60
2019-05-22T14:53:45.966Z,96.50
2019-05-22T14:56:15.182Z,96.50
2019-05-22T14:58:44.188Z,96.40
2019-05-22T15:01:13.731Z,96.40
2019-05-22T15:03:42.458Z,96.60
2019-05-22T15:06:11.637Z,96.50
2019-05-22T15:08:40.357Z,96.50
2019-05-22T15:11:10.166Z,96.60
2019-05-22T15:13:40.083Z,96.50
2019-05-22T15:16:08.757Z,96.50
2019-05-22T15:18:37.439Z,96.40
2019-05-22T15:21:07.738Z,96.50
2019-05-22T15:23:37.328Z,96.40
2019-05-22T15:26:06.194Z,96.30
2019-05-22T15:28:35.049Z,96.30
2019-05-22T15:31:04.842Z,96.50
2019-05-22T15:33:35.026Z,96.30
2019-05-22T15:36:06.944Z,96.30
2019-05-22T15:38:38.731Z,96.50
2019-05-22T15:41:09.558Z,96.20
2019-05-22T15:43:38.608Z,96.30
2019-05-22T15:46:08.895Z,96.30
2019-05-22T15:48:39.795Z,96.20
2019-05-22T15:51:10.363Z,96.20
2019-05-22T15:53:40.534Z,96.10
2019-05-22T15:56:10.440Z,96.00
2019-05-22T15:58:42.144Z,96.20
2019-05-22T16:01:13.194Z,96.10
2019-05-22T16:03:42.582Z,96.10
2019-05-22T16:06:13.089Z,95.90
2019-05-22T16:08:42.456Z,96.20
2019-05-22T16:11:14.244Z,95.90
2019-05-22T16:13:44.823Z,95.90
2019-05-22T16:16:20.262Z,95.60
2019-05-22T16:18:52.058Z,95.60
2019-05-22T16:21:22.947Z,95.50
2019-05-22T16:23:51.633Z,95.50
2019-05-22T16:26:23.079Z,95.50
2019-05-22T16:28:52.152Z,95.70
2019-05-22T16:31:22.475Z,95.50
2019-05-22T16:33:53.110Z,95.60
2019-05-22T16:36:23.140Z,95.60
2019-05-22T16:38:52.425Z,95.40
2019-05-22T16:41:22.696Z,95.50
2019-05-22T16:43:51.853Z,95.50
2019-05-22T16:46:22.397Z,95.20
2019-05-22T16:48:52.742Z,95.20
2019-05-22T16:51:22.766Z,95.30
2019-05-22T16:53:54.109Z,95.20
2019-05-22T16:56:23.614Z,95.00
2019-05-22T16:58:52.633Z,95.10
2019-05-22T17:01:23.868Z,95.20
2019-05-22T17:03:54.804Z,95.20
2019-05-22T17:06:24.549Z,95.10
2019-05-22T17:08:56.054Z,95.00
2019-05-22T17:11:25.489Z,95.10
2019-05-22T17:13:56.029Z,95.10
2019-05-22T17:16:27.461Z,95.20
2019-05-22T17:18:56.432Z,95.10
2019-05-22T17:21:25.162Z,95.20
2019-05-22T17:23:53.936Z,95.10
2019-05-22T17:26:24.214Z,95.20
2019-05-22T17:28:55.419Z,95.00
2019-05-22T17:31:26.406Z,95.00
2019-05-22T17:33:55.916Z,94.90
2019-05-22T17:36:26.877Z,94.80
2019-05-22T17:38:56.741Z,94.70
2019-05-22T17:41:26.203Z,94.70
2019-05-22T17:43:55.897Z,94.70
2019-05-22T17:46:25.398Z,94.70
2019-05-22T17:48:54.688Z,94.70
2019-05-22T17:51:24.246Z,94.80
2019-05-22T17:53:54.684Z,94.90
2019-05-22T17:56:24.709Z,94.70
2019-05-22T17:58:53.509Z,94.70
2019-05-22T18:01:24.383Z,94.70
2019-05-22T18:03:53.643Z,95.00
2019-05-22T18:06:22.475Z,94.70
2019-05-22T18:08:53.763Z,94.50
2019-05-22T18:11:24.235Z,94.60
2019-05-22T18:14:00.973Z,94.50
2019-05-22T18:16:32.782Z,94.40
2019-05-22T18:19:01.985Z,94.60
2019-05-22T18:21:31.279Z,94.20
2019-05-22T18:23:59.938Z,94.20
2019-05-22T18:26:28.997Z,93.90
2019-05-22T18:28:57.842Z,94.00
2019-05-22T18:31:27.376Z,93.70
2019-05-22T18:33:56.613Z,93.70
2019-05-22T18:36:26.523Z,93.60
2019-05-22T18:38:55.357Z,93.40
2019-05-22T18:41:24.133Z,93.40
2019-05-22T18:43:54.502Z,93.30
2019-05-22T18:46:26.920Z,93.10
2019-05-22T18:48:55.890Z,93.00
2019-05-22T18:51:26.806Z,93.00
2019-05-22T18:53:56.337Z,92.80
2019-05-22T18:56:27.514Z,92.70
2019-05-22T18:58:59.259Z,92.70
2019-05-22T19:01:29.826Z,92.80
2019-05-22T19:03:58.697Z,92.70
2019-05-22T19:06:30.661Z,92.70
2019-05-22T19:09:00.082Z,92.60
2019-05-22T19:11:29.153Z,92.60
2019-05-22T19:14:01.861Z,92.20
2019-05-22T19:16:30.676Z,92.30
2019-05-22T19:19:00.062Z,92.50
2019-05-22T19:21:29.109Z,92.30
2019-05-22T19:23:58.728Z,92.30
2019-05-22T19:26:27.513Z,92.20
2019-05-22T19:29:02.009Z,91.90
2019-05-22T19:31:32.641Z,92.20
2019-05-22T19:34:02.654Z,91.90
2019-05-22T19:36:31.546Z,91.90
2019-05-22T19:39:01.271Z,91.80
2019-05-22T19:41:30.670Z,91.80
2019-05-22T19:43:59.461Z,91.80
2019-05-22T19:46:28.322Z,92.00
2019-05-22T19:48:57.062Z,92.00
2019-05-22T19:51:27.687Z,91.90
2019-05-22T19:53:57.302Z,91.80
2019-05-22T19:56:28.170Z,92.10
2019-05-22T19:58:57.816Z,92.00
2019-05-22T20:01:26.679Z,91.90
2019-05-22T20:03:57.057Z,91.90
2019-05-22T20:06:28.302Z,91.90
2019-05-22T20:09:00.891Z,91.90
2019-05-22T20:11:30.087Z,92.00
2019-05-22T20:14:02.256Z,92.00
2019-05-22T20:16:30.981Z,91.90
2019-05-22T20:19:00.086Z,91.80
2019-05-22T20:21:30.273Z,91.90
2019-05-22T20:23:59.509Z,91.90
2019-05-22T20:26:28.588Z,91.80
2019-05-22T20:28:57.758Z,91.90
2019-05-22T20:31:26.966Z,91.90
2019-05-22T20:33:55.845Z,91.90
2019-05-22T20:36:25.231Z,91.80
2019-05-22T20:38:54.319Z,91.90
2019-05-22T20:41:24.248Z,91.80
2019-05-22T20:43:53.907Z,91.80
2019-05-22T20:46:23.283Z,91.80
2019-05-22T20:48:52.518Z,91.90
2019-05-22T20:51:23.839Z,91.70
2019-05-22T20:53:54.843Z,91.70
2019-05-22T20:56:25.321Z,91.70
2019-05-22T20:58:54.869Z,91.80
2019-05-22T21:01:25.046Z,91.80
2019-05-22T21:03:53.991Z,91.70
2019-05-22T21:06:25.202Z,91.70
2019-05-22T21:08:53.837Z,91.70
2019-05-22T21:11:25.496Z,91.70
2019-05-22T21:13:54.712Z,91.80
2019-05-22T21:16:23.290Z,91.80
2019-05-22T21:18:53.314Z,91.80
2019-05-22T21:21:23.693Z,91.80
2019-05-22T21:23:57.496Z,91.70
2019-05-22T21:26:23.710Z,91.90
2019-05-22T21:28:52.204Z,91.80
2019-05-22T21:31:21.643Z,91.80
2019-05-22T21:33:50.957Z,91.80
2019-05-22T21:36:21.376Z,91.80
2019-05-22T21:38:50.086Z,91.90
2019-05-22T21:41:21.346Z,91.80
2019-05-22T21:43:50.650Z,91.90
2019-05-22T21:46:19.391Z,91.90
2019-05-22T21:48:49.525Z,91.90
2019-05-22T21:51:18.247Z,92.00
2019-05-22T21:53:47.003Z,91.90
2019-05-22T21:56:16.908Z,92.00
2019-05-22T21:58:47.457Z,92.00
2019-05-22T22:01:21.536Z,92.00
2019-05-22T22:03:55.351Z,92.10
2019-05-22T22:06:24.194Z,92.00
2019-05-22T22:08:52.874Z,92.00
2019-05-22T22:11:24.887Z,92.00
2019-05-22T22:13:55.075Z,91.90
2019-05-22T22:16:24.805Z,91.90
2019-05-22T22:18:55.050Z,91.90
2019-05-22T22:21:24.278Z,91.80
2019-05-22T22:23:53.843Z,92.00
2019-05-22T22:26:25.895Z,91.80
2019-05-22T22:28:53.409Z,91.90
2019-05-22T22:31:23.630Z,91.80
2019-05-22T22:33:55.261Z,91.90
2019-05-22T22:36:24.527Z,91.90
2019-05-22T22:38:54.159Z,91.90
2019-05-22T22:41:23.367Z,91.90
2019-05-22T22:43:52.749Z,91.90
2019-05-22T22:46:46.548Z,92.00
2019-05-22T22:49:17.337Z,91.90
2019-05-22T22:51:47.431Z,92.10
2019-05-22T22:54:16.753Z,92.00
2019-05-22T22:56:45.618Z,92.00
2019-05-22T22:59:15.295Z,92.10
2019-05-22T23:01:47.144Z,92.10
2019-05-22T23:04:16.580Z,92.10
2019-05-22T23:06:45.629Z,92.10
2019-05-22T23:09:15.269Z,92.30
2019-05-22T23:11:45.763Z,92.20
2019-05-22T23:14:15.548Z,92.10
2019-05-22T23:16:44.193Z,92.20
2019-05-22T23:19:17.557Z,92.20
2019-05-22T23:21:48.884Z,92.10
2019-05-22T23:24:19.806Z,92.20
2019-05-22T23:26:49.222Z,92.30
2019-05-22T23:29:18.120Z,92.00
2019-05-22T23:31:46.662Z,91.90
2019-05-22T23:34:15.645Z,92.00
2019-05-22T23:36:45.362Z,91.90
2019-05-22T23:39:15.353Z,92.00
2019-05-22T23:41:45.148Z,92.00
2019-05-22T23:44:16.232Z,91.90
2019-05-22T23:46:44.917Z,92.00
2019-05-22T23:49:13.874Z,92.00
2019-05-22T23:51:42.423Z,91.90
2019-05-22T23:54:10.940Z,91.90
2019-05-22T23:56:41.632Z,92.00
2019-05-22T23:59:10.735Z,92.00
